createdAt,value
2022-08-30T00:01:35.158Z,21.87
2022-08-30T00:04:03.567Z,21.86
2022-08-30T00:06:31.690Z,21.30
2022-08-30T00:09:00.118Z,21.83
2022-08-30T00:11:28.596Z,21.72
2022-08-30T00:13:57.333Z,21.66
2022-08-30T00:16:26.863Z,21.44
2022-08-30T00:18:55.638Z,21.69
2022-08-30T00:21:24.247Z,21.92
2022-08-30T00:23:52.298Z,21.74
2022-08-30T00:26:20.548Z,21.23
2022-08-30T00:28:48.289Z,21.89
2022-08-30T00:31:16.117Z,21.33
2022-08-30T00:33:44.403Z,20.62
2022-08-30T00:36:12.366Z,21.14
2022-08-30T00:38:40.295Z,21.33
2022-08-30T00:41:08.439Z,21.50
2022-08-30T00:43:37.066Z,21.45
2022-08-30T00:46:08.811Z,21.32
2022-08-30T00:48:40.743Z,21.63
2022-08-30T00:51:10.620Z,21.29
2022-08-30T00:53:42.661Z,21.00
2022-08-30T00:56:10.789Z,21.19
2022-08-30T00:58:42.958Z,21.73
2022-08-30T01:01:11.128Z,21.18
2022-08-30T01:03:40.355Z,21.38
2022-08-30T01:06:08.291Z,21.30
2022-08-30T01:08:36.153Z,21.01
2022-08-30T01:11:04.637Z,20.76
2022-08-30T01:13:34.808Z,21.16
2022-08-30T01:16:03.358Z,21.05
2022-08-30T01:18:32.487Z,21.29
2022-08-30T01:21:19.647Z,21.65
2022-08-30T01:23:50.399Z,21.98
2022-08-30T01:26:19.783Z,22.26
2022-08-30T01:28:53.206Z,21.82
2022-08-30T01:31:21.096Z,21.65
2022-08-30T01:33:48.866Z,21.42
2022-08-30T01:36:17.549Z,21.46
2022-08-30T01:38:53.849Z,20.80
2022-08-30T01:41:34.506Z,21.95
2022-08-30T01:44:08.536Z,22.10
2022-08-30T01:46:41.296Z,21.98
2022-08-30T01:49:13.645Z,22.20
2022-08-30T01:51:42.157Z,22.06
2022-08-30T01:54:10.908Z,21.88
2022-08-30T01:56:38.718Z,21.71
2022-08-30T01:59:06.988Z,20.78
2022-08-30T02:01:37.314Z,20.73
2022-08-30T02:04:06.717Z,20.90
2022-08-30T02:06:34.860Z,21.16
2022-08-30T02:09:02.678Z,20.91
2022-08-30T02:11:31.037Z,20.83
2022-08-30T02:13:59.139Z,20.56
2022-08-30T02:16:27.025Z,20.21
2022-08-30T02:18:57.457Z,20.80
2022-08-30T02:21:27.700Z,21.01
2022-08-30T02:23:56.177Z,20.74
2022-08-30T02:26:24.389Z,20.96
2022-08-30T02:28:53.089Z,20.93
2022-08-30T02:31:22.324Z,21.17
2022-08-30T02:33:51.718Z,21.04
2022-08-30T02:36:20.986Z,20.90
2022-08-30T02:38:50.057Z,20.81
2022-08-30T02:41:18.815Z,21.02
2022-08-30T02:43:46.869Z,21.00
2022-08-30T02:46:15.178Z,20.53
2022-08-30T02:48:43.737Z,20.80
2022-08-30T02:51:14.080Z,20.72
2022-08-30T02:53:44.014Z,20.43
2022-08-30T02:56:13.227Z,20.56
2022-08-30T02:58:45.055Z,20.38
2022-08-30T03:01:14.670Z,19.58
2022-08-30T03:03:43.896Z,20.20
2022-08-30T03:06:12.357Z,20.34
2022-08-30T03:08:40.578Z,20.36
2022-08-30T03:11:08.900Z,20.40
2022-08-30T03:13:36.877Z,20.18
2022-08-30T03:16:05.249Z,20.21
2022-08-30T03:18:33.730Z,19.94
2022-08-30T03:21:01.706Z,20.07
2022-08-30T03:23:30.297Z,19.78
2022-08-30T03:25:58.070Z,19.21
2022-08-30T03:28:25.846Z,19.56
2022-08-30T03:30:54.649Z,19.81
2022-08-30T03:33:22.829Z,19.17
2022-08-30T03:35:50.637Z,19.35
2022-08-30T03:38:18.726Z,19.26
2022-08-30T03:40:46.481Z,20.03
2022-08-30T03:43:14.597Z,20.08
2022-08-30T03:45:43.398Z,19.65
2022-08-30T03:48:11.304Z,19.21
2022-08-30T03:50:39.157Z,19.45
2022-08-30T03:53:07.567Z,19.49
2022-08-30T03:55:35.387Z,19.07
2022-08-30T03:58:03.276Z,19.02
2022-08-30T04:00:31.377Z,19.80
2022-08-30T04:02:59.638Z,19.56
2022-08-30T04:05:27.725Z,19.74
2022-08-30T04:07:55.497Z,19.68
2022-08-30T04:10:23.628Z,19.68
2022-08-30T04:12:51.487Z,19.53
2022-08-30T04:15:20.019Z,19.24
2022-08-30T04:17:48.477Z,19.50
2022-08-30T04:20:16.918Z,19.06
2022-08-30T04:22:44.831Z,19.61
2022-08-30T04:25:15.587Z,19.69
2022-08-30T04:27:45.920Z,19.88
2022-08-30T04:30:15.998Z,19.57
2022-08-30T04:32:44.665Z,19.20
2022-08-30T04:35:14.189Z,19.42
2022-08-30T04:37:42.984Z,20.01
2022-08-30T04:40:12.122Z,19.80
2022-08-30T04:42:40.677Z,20.19
2022-08-30T04:45:11.667Z,19.97
2022-08-30T04:47:39.444Z,20.01
2022-08-30T04:50:09.570Z,20.36
2022-08-30T04:52:38.141Z,20.35
2022-08-30T04:55:06.686Z,20.63
2022-08-30T04:57:35.319Z,20.67
2022-08-30T05:00:05.856Z,20.58
2022-08-30T05:02:33.612Z,20.71
2022-08-30T05:05:20.917Z,21.18
2022-08-30T05:07:49.117Z,21.09
2022-08-30T05:10:16.901Z,21.09
2022-08-30T05:12:44.826Z,21.63
2022-08-30T05:15:13.540Z,21.87
2022-08-30T05:17:41.564Z,21.66
2022-08-30T05:20:10.995Z,21.81
2022-08-30T05:22:42.542Z,21.69
2022-08-30T05:25:14.777Z,22.03
2022-08-30T05:27:42.867Z,22.31
2022-08-30T05:30:12.002Z,23.09
2022-08-30T05:32:39.967Z,22.30
2022-08-30T05:35:09.487Z,22.21
2022-08-30T05:37:37.727Z,22.53
2022-08-30T05:40:10.930Z,23.22
2022-08-30T05:42:41.855Z,23.84
2022-08-30T05:45:10.806Z,22.80
2022-08-30T05:47:38.857Z,22.93
2022-08-30T05:50:08.383Z,22.64
2022-08-30T05:52:38.358Z,23.26
2022-08-30T05:55:07.955Z,23.19
2022-08-30T05:57:37.809Z,23.32
2022-08-30T06:00:11.719Z,23.01
2022-08-30T06:02:41.766Z,22.79
2022-08-30T06:05:14.151Z,23.12
2022-08-30T06:07:43.653Z,23.09
2022-08-30T06:10:12.741Z,22.73
2022-08-30T06:12:40.966Z,22.69
2022-08-30T06:15:09.206Z,23.28
2022-08-30T06:17:39.854Z,22.55
2022-08-30T06:20:09.693Z,22.75
2022-08-30T06:22:39.097Z,23.44
2022-08-30T06:25:07.637Z,23.36
2022-08-30T06:27:35.498Z,24.10
2022-08-30T06:30:08.317Z,24.57
2022-08-30T06:32:39.357Z,24.88
2022-08-30T06:35:16.327Z,24.79
2022-08-30T06:37:46.744Z,25.50
2022-08-30T06:40:26.529Z,24.79
2022-08-30T06:42:55.847Z,25.43
2022-08-30T06:45:24.113Z,24.71
2022-08-30T06:47:54.094Z,25.18
2022-08-30T06:50:29.353Z,25.81
2022-08-30T06:53:06.864Z,26.79
2022-08-30T06:55:35.517Z,26.79
2022-08-30T06:58:04.966Z,26.05
2022-08-30T07:00:32.718Z,26.45
2022-08-30T07:03:01.881Z,26.77
2022-08-30T07:05:30.038Z,26.04
2022-08-30T07:07:57.850Z,26.08
2022-08-30T07:10:25.998Z,26.44
2022-08-30T07:12:54.152Z,26.87
2022-08-30T07:15:23.187Z,26.33
2022-08-30T07:18:09.548Z,26.24
2022-08-30T07:20:40.282Z,26.25
2022-08-30T07:23:10.057Z,26.56
2022-08-30T07:25:39.886Z,26.61
2022-08-30T07:28:08.797Z,26.55
2022-08-30T07:30:36.736Z,25.92
2022-08-30T07:33:05.100Z,25.41
2022-08-30T07:35:33.103Z,25.25
2022-08-30T07:38:01.080Z,26.15
2022-08-30T07:40:29.404Z,25.95
2022-08-30T07:42:57.262Z,25.74
2022-08-30T07:45:25.199Z,26.99
2022-08-30T07:47:53.432Z,27.15
2022-08-30T07:50:22.559Z,27.07
2022-08-30T07:52:50.394Z,26.73
2022-08-30T07:55:19.076Z,27.25
2022-08-30T07:57:46.957Z,26.93
2022-08-30T08:00:15.428Z,26.82
2022-08-30T08:02:43.796Z,27.78
2022-08-30T08:05:15.236Z,27.36
2022-08-30T08:07:46.001Z,28.41
2022-08-30T08:10:14.878Z,28.11
2022-08-30T08:12:42.779Z,28.28
2022-08-30T08:15:11.618Z,27.46
2022-08-30T08:17:39.520Z,27.34
2022-08-30T08:20:08.058Z,27.33
2022-08-30T08:22:39.920Z,27.67
2022-08-30T08:25:08.487Z,27.45
2022-08-30T08:27:36.669Z,27.70
2022-08-30T08:30:05.641Z,28.26
2022-08-30T08:32:33.722Z,26.74
2022-08-30T08:35:02.416Z,28.65
2022-08-30T08:37:30.274Z,27.88
2022-08-30T08:39:58.164Z,27.59
2022-08-30T08:42:40.470Z,27.32
2022-08-30T08:45:20.525Z,27.92
2022-08-30T08:48:04.367Z,28.91
2022-08-30T08:50:32.437Z,29.63
2022-08-30T08:53:45.140Z,29.10
2022-08-30T08:56:15.309Z,30.25
2022-08-30T08:58:50.259Z,30.08
2022-08-30T09:01:21.247Z,29.86
2022-08-30T09:03:50.529Z,29.61
2022-08-30T09:06:55.747Z,31.02
2022-08-30T09:09:28.272Z,29.99
2022-08-30T09:11:56.380Z,31.07
2022-08-30T09:14:33.929Z,29.84
2022-08-30T09:17:03.949Z,30.58
2022-08-30T09:19:35.348Z,29.76
2022-08-30T09:22:12.348Z,28.73
2022-08-30T09:24:44.009Z,28.40
2022-08-30T09:27:17.580Z,29.29
2022-08-30T09:29:56.049Z,30.52
2022-08-30T09:32:52.728Z,30.05
2022-08-30T09:35:38.059Z,30.61
2022-08-30T09:38:11.248Z,29.56
2022-08-30T09:40:47.399Z,29.14
2022-08-30T09:43:18.837Z,30.04
2022-08-30T09:45:50.645Z,30.50
2022-08-30T09:48:40.796Z,29.24
2022-08-30T09:51:12.148Z,29.83
2022-08-30T09:54:01.247Z,30.03
2022-08-30T09:56:56.394Z,30.20
2022-08-30T09:59:36.632Z,30.15
2022-08-30T10:02:25.609Z,30.10
2022-08-30T10:05:10.170Z,30.20
2022-08-30T10:07:43.479Z,30.58
2022-08-30T10:10:20.097Z,30.50
2022-08-30T10:13:23.340Z,28.77
2022-08-30T10:15:58.245Z,29.13
2022-08-30T10:18:48.438Z,29.35
2022-08-30T10:21:40.680Z,28.69
2022-08-30T10:24:21.004Z,29.95
2022-08-30T10:26:53.499Z,28.62
2022-08-30T10:29:59.602Z,27.98
2022-08-30T10:32:47.229Z,28.06
2022-08-30T10:35:19.714Z,28.55
2022-08-30T10:37:55.487Z,29.59
2022-08-30T10:40:49.209Z,29.36
2022-08-30T10:44:00.267Z,30.02
2022-08-30T10:46:40.575Z,29.00
2022-08-30T10:49:19.910Z,29.73
2022-08-30T10:52:22.535Z,29.22
2022-08-30T10:54:55.109Z,28.97
2022-08-30T10:57:23.413Z,30.89
2022-08-30T11:00:01.495Z,30.94
2022-08-30T11:03:10.908Z,31.59
2022-08-30T11:05:48.287Z,31.03
2022-08-30T11:08:31.395Z,31.47
2022-08-30T11:11:17.703Z,31.42
2022-08-30T11:13:46.330Z,32.69
2022-08-30T11:16:17.099Z,32.50
2022-08-30T11:18:59.177Z,32.78
2022-08-30T11:21:37.383Z,32.64
2022-08-30T11:24:24.789Z,33.26
2022-08-30T11:27:01.491Z,32.29
2022-08-30T11:29:33.895Z,32.35
2022-08-30T11:32:17.676Z,30.99
2022-08-30T11:34:45.706Z,30.60
2022-08-30T11:37:13.898Z,29.71
2022-08-30T11:39:45.137Z,30.27
2022-08-30T11:42:29.357Z,31.81
2022-08-30T11:45:26.717Z,32.37
2022-08-30T11:48:05.789Z,31.96
2022-08-30T11:50:44.290Z,33.65
2022-08-30T11:53:30.027Z,32.41
2022-08-30T11:56:10.555Z,32.40
2022-08-30T11:59:00.508Z,32.09
2022-08-30T12:01:51.259Z,31.29
2022-08-30T12:04:16.799Z,31.85
2022-08-30T12:06:57.251Z,33.29
2022-08-30T12:09:25.526Z,32.15
2022-08-30T12:12:05.820Z,31.11
2022-08-30T12:14:47.798Z,32.99
2022-08-30T12:17:43.470Z,32.08
2022-08-30T12:20:23.437Z,31.53
2022-08-30T12:22:52.991Z,31.79
2022-08-30T12:25:33.748Z,31.93
2022-08-30T12:28:22.881Z,31.36
2022-08-30T12:30:51.548Z,29.85
2022-08-30T12:33:41.459Z,30.93
2022-08-30T12:36:31.657Z,31.90
2022-08-30T12:39:18.637Z,32.18
2022-08-30T12:41:46.924Z,31.06
2022-08-30T12:44:17.958Z,31.68
2022-08-30T12:46:49.447Z,31.35
2022-08-30T12:49:19.024Z,31.56
2022-08-30T12:51:47.332Z,32.28
2022-08-30T12:54:30.184Z,32.30
2022-08-30T12:57:35.004Z,31.62
2022-08-30T13:00:01.574Z,31.71
2022-08-30T13:02:52.253Z,31.84
2022-08-30T13:05:45.619Z,32.36
2022-08-30T13:08:25.863Z,32.57
2022-08-30T13:10:55.498Z,31.47
2022-08-30T13:13:28.599Z,30.57
2022-08-30T13:15:56.811Z,30.21
2022-08-30T13:18:33.815Z,30.80
2022-08-30T13:21:21.629Z,32.05
2022-08-30T13:23:51.350Z,31.26
2022-08-30T13:26:22.942Z,31.09
2022-08-30T13:28:58.796Z,31.49
2022-08-30T13:31:28.581Z,31.35
2022-08-30T13:33:59.338Z,31.52
2022-08-30T13:36:32.876Z,31.66
2022-08-30T13:39:01.720Z,31.83
2022-08-30T13:41:34.165Z,32.19
2022-08-30T13:44:13.394Z,32.08
2022-08-30T13:46:53.517Z,32.80
2022-08-30T13:52:21.834Z,31.87
2022-08-30T13:54:51.245Z,32.12
2022-08-30T14:00:15.275Z,31.82
2022-08-30T14:02:47.760Z,30.53
2022-08-30T14:05:46.983Z,30.45
2022-08-30T14:08:44.218Z,31.01
2022-08-30T14:10:58.409Z,30.97
2022-08-30T14:13:30.778Z,30.27
2022-08-30T14:18:49.590Z,30.56
2022-08-30T14:21:17.614Z,30.29
2022-08-30T14:23:49.730Z,31.64
2022-08-30T14:26:20.206Z,31.86
2022-08-30T14:28:51.442Z,30.70
2022-08-30T14:31:20.602Z,30.67
2022-08-30T14:33:49.000Z,30.60
2022-08-30T14:36:17.735Z,32.03
2022-08-30T14:38:46.257Z,31.21
2022-08-30T14:41:15.881Z,30.56
2022-08-30T14:43:44.246Z,30.81
2022-08-30T14:46:12.725Z,30.52
2022-08-30T14:48:43.030Z,29.64
2022-08-30T14:51:17.056Z,30.84
2022-08-30T14:53:45.930Z,29.71
2022-08-30T14:56:17.077Z,30.04
2022-08-30T14:58:49.606Z,30.25
2022-08-30T15:01:18.480Z,30.04
2022-08-30T15:03:46.877Z,30.21
2022-08-30T15:06:15.281Z,29.76
2022-08-30T15:08:47.696Z,29.36
2022-08-30T15:11:19.382Z,29.67
2022-08-30T15:13:47.476Z,29.46
2022-08-30T15:16:21.621Z,29.87
2022-08-30T15:18:50.417Z,30.35
2022-08-30T15:21:27.865Z,29.00
2022-08-30T15:23:58.055Z,29.55
2022-08-30T15:26:26.318Z,29.37
2022-08-30T15:28:56.109Z,28.22
2022-08-30T15:31:31.310Z,27.84
2022-08-30T15:33:59.436Z,27.89
2022-08-30T15:36:29.276Z,28.02
2022-08-30T15:38:59.624Z,28.16
2022-08-30T15:41:28.824Z,27.79
2022-08-30T15:43:57.918Z,28.13
2022-08-30T15:46:32.399Z,27.97
2022-08-30T15:49:21.584Z,28.15
2022-08-30T15:51:51.483Z,28.72
2022-08-30T15:54:23.686Z,28.72
2022-08-30T15:56:59.412Z,28.79
2022-08-30T15:59:30.606Z,28.22
2022-08-30T16:01:58.734Z,28.66
2022-08-30T16:04:27.965Z,28.74
2022-08-30T16:06:55.946Z,27.79
2022-08-30T16:09:24.358Z,27.90
2022-08-30T16:11:53.398Z,27.40
2022-08-30T16:14:21.214Z,28.12
2022-08-30T16:16:49.157Z,28.16
2022-08-30T16:19:17.341Z,28.40
2022-08-30T16:21:45.352Z,28.28
2022-08-30T16:24:14.361Z,28.51
2022-08-30T16:26:43.317Z,28.90
2022-08-30T16:29:12.589Z,28.54
2022-08-30T16:31:44.440Z,28.70
2022-08-30T16:34:14.510Z,28.37
2022-08-30T16:36:42.892Z,28.69
2022-08-30T16:39:13.388Z,28.77
2022-08-30T16:41:44.306Z,28.67
2022-08-30T16:44:13.691Z,27.78
2022-08-30T16:46:53.190Z,27.39
2022-08-30T16:49:23.210Z,28.34
2022-08-30T16:51:54.099Z,27.62
2022-08-30T16:54:22.390Z,27.12
2022-08-30T16:56:50.522Z,26.44
2022-08-30T16:59:19.040Z,26.65
2022-08-30T17:01:48.256Z,27.00
2022-08-30T17:04:19.400Z,26.70
2022-08-30T17:06:51.049Z,26.96
2022-08-30T17:09:19.337Z,27.16
2022-08-30T17:11:48.286Z,26.54
2022-08-30T17:14:21.488Z,27.16
2022-08-30T17:16:57.601Z,26.78
2022-08-30T17:19:26.917Z,26.79
2022-08-30T17:21:58.174Z,26.90
2022-08-30T17:24:26.976Z,26.96
2022-08-30T17:26:54.890Z,26.66
2022-08-30T17:29:26.170Z,26.70
2022-08-30T17:31:56.901Z,26.43
2022-08-30T17:34:40.320Z,25.86
2022-08-30T17:37:09.477Z,25.23
2022-08-30T17:39:37.754Z,25.15
2022-08-30T17:42:07.765Z,24.85
2022-08-30T17:44:36.504Z,24.88
2022-08-30T17:47:05.109Z,25.23
2022-08-30T17:49:35.842Z,25.06
2022-08-30T17:52:04.355Z,25.24
2022-08-30T17:54:34.278Z,24.78
2022-08-30T17:57:08.659Z,25.38
2022-08-30T17:59:39.384Z,25.54
2022-08-30T18:02:07.932Z,25.02
2022-08-30T18:04:41.678Z,24.89
2022-08-30T18:07:12.046Z,25.36
2022-08-30T18:09:41.521Z,25.63
2022-08-30T18:12:10.938Z,25.38
2022-08-30T18:14:39.541Z,24.89
2022-08-30T18:17:08.007Z,25.02
2022-08-30T18:19:46.396Z,24.46
2022-08-30T18:22:25.827Z,24.37
2022-08-30T18:24:59.134Z,24.42
2022-08-30T18:27:30.297Z,23.89
2022-08-30T18:29:58.186Z,23.89
2022-08-30T18:32:28.858Z,23.35
2022-08-30T18:35:04.790Z,23.56
2022-08-30T18:37:34.056Z,23.37
2022-08-30T18:40:02.148Z,23.01
2022-08-30T18:42:31.648Z,22.98
2022-08-30T18:45:08.240Z,22.76
2022-08-30T18:47:43.453Z,22.13
2022-08-30T18:50:14.235Z,22.91
2022-08-30T18:52:42.018Z,22.42
2022-08-30T18:55:13.319Z,22.36
2022-08-30T18:57:41.185Z,22.69
2022-08-30T19:00:10.713Z,21.69
2022-08-30T19:02:43.439Z,22.08
2022-08-30T19:05:12.188Z,22.12
2022-08-30T19:07:40.727Z,22.19
2022-08-30T19:10:12.368Z,22.46
2022-08-30T19:12:41.198Z,22.06
2022-08-30T19:15:11.822Z,22.06
2022-08-30T19:17:41.756Z,22.29
2022-08-30T19:20:11.208Z,22.11
2022-08-30T19:23:06.265Z,21.95
2022-08-30T19:25:27.987Z,21.64
2022-08-30T19:27:56.828Z,21.59
2022-08-30T19:33:14.441Z,21.52
2022-08-30T19:35:42.298Z,21.45
2022-08-30T19:38:10.268Z,21.52
2022-08-30T19:40:39.398Z,21.16
2022-08-30T19:43:08.389Z,21.29
2022-08-30T19:45:38.727Z,21.19
2022-08-30T19:48:07.230Z,21.25
2022-08-30T19:50:37.223Z,21.10
2022-08-30T19:53:06.717Z,20.70
2022-08-30T19:55:37.254Z,20.61
2022-08-30T19:58:05.207Z,20.91
2022-08-30T20:00:33.036Z,20.58
2022-08-30T20:03:07.479Z,20.45
2022-08-30T20:05:36.097Z,20.23
2022-08-30T20:08:03.975Z,20.26
2022-08-30T20:10:32.179Z,20.68
2022-08-30T20:13:00.218Z,20.69
2022-08-30T20:15:28.065Z,20.78
2022-08-30T20:18:05.795Z,20.51
2022-08-30T20:20:36.438Z,20.25
2022-08-30T20:23:05.955Z,20.77
2022-08-30T20:25:35.509Z,20.54
2022-08-30T20:28:03.569Z,20.70
2022-08-30T20:30:32.378Z,20.48
2022-08-30T20:33:03.729Z,20.58
2022-08-30T20:35:34.628Z,20.68
2022-08-30T20:38:06.610Z,20.87
2022-08-30T20:40:37.786Z,20.69
2022-08-30T20:43:06.690Z,21.07
2022-08-30T20:45:34.836Z,21.13
2022-08-30T20:48:03.349Z,21.55
2022-08-30T20:50:31.686Z,21.55
2022-08-30T20:52:59.742Z,21.34
2022-08-30T20:55:27.667Z,21.32
2022-08-30T20:57:55.479Z,21.45
2022-08-30T21:00:24.090Z,20.99
2022-08-30T21:02:54.424Z,21.29
2022-08-30T21:05:22.399Z,21.36
2022-08-30T21:07:50.659Z,20.83
2022-08-30T21:10:23.100Z,20.68
2022-08-30T21:12:51.843Z,20.48
2022-08-30T21:15:36.892Z,20.74
2022-08-30T21:18:06.333Z,21.00
2022-08-30T21:20:34.121Z,21.08
2022-08-30T21:23:01.964Z,20.20
2022-08-30T21:25:33.370Z,20.54
2022-08-30T21:28:01.427Z,20.72
2022-08-30T21:30:29.195Z,20.61
2022-08-30T21:33:00.022Z,20.64
2022-08-30T21:35:47.508Z,20.26
2022-08-30T21:38:15.707Z,20.42
2022-08-30T21:40:44.089Z,20.53
2022-08-30T21:43:12.497Z,19.43
2022-08-30T21:45:45.164Z,19.57
2022-08-30T21:48:13.966Z,19.99
2022-08-30T21:50:43.025Z,19.78
2022-08-30T21:53:10.961Z,20.31
2022-08-30T21:55:43.821Z,20.26
2022-08-30T21:58:11.679Z,19.34
2022-08-30T22:00:39.677Z,18.92
2022-08-30T22:03:07.901Z,20.00
2022-08-30T22:05:35.728Z,19.88
2022-08-30T22:08:03.628Z,19.45
2022-08-30T22:10:33.332Z,19.78
2022-08-30T22:13:01.338Z,20.18
2022-08-30T22:15:31.737Z,20.01
2022-08-30T22:18:00.760Z,19.95
2022-08-30T22:20:30.412Z,19.96
2022-08-30T22:22:58.809Z,19.87
2022-08-30T22:25:26.848Z,19.69
2022-08-30T22:27:54.712Z,19.70
2022-08-30T22:30:23.317Z,19.11
2022-08-30T22:32:51.515Z,19.60
2022-08-30T22:35:21.100Z,19.68
2022-08-30T22:37:53.138Z,19.57
2022-08-30T22:40:21.774Z,19.46
2022-08-30T22:42:50.091Z,19.02
2022-08-30T22:45:17.917Z,19.01
2022-08-30T22:47:45.818Z,18.84
2022-08-30T22:50:14.418Z,19.52
2022-08-30T22:52:42.308Z,19.51
2022-08-30T22:55:10.417Z,19.77
2022-08-30T22:57:39.269Z,19.67
2022-08-30T23:00:15.596Z,19.50
2022-08-30T23:02:48.900Z,19.30
2022-08-30T23:05:17.547Z,19.25
2022-08-30T23:07:45.619Z,19.28
2022-08-30T23:10:14.017Z,19.20
2022-08-30T23:12:41.939Z,19.27
2022-08-30T23:15:13.000Z,19.33
2022-08-30T23:17:40.898Z,19.23
2022-08-30T23:20:09.048Z,18.69
2022-08-30T23:22:37.108Z,18.96
2022-08-30T23:25:24.558Z,18.26
2022-08-30T23:28:17.403Z,18.36
2022-08-30T23:31:07.519Z,18.67
2022-08-30T23:33:54.158Z,19.05
2022-08-30T23:36:40.658Z,19.05
2022-08-30T23:39:27.318Z,19.34
2022-08-30T23:42:13.600Z,19.41
2022-08-30T23:45:00.250Z,19.21
2022-08-30T23:47:46.855Z,19.40
2022-08-30T23:50:33.677Z,19.27
2022-08-30T23:53:20.065Z,18.67
2022-08-30T23:56:07.128Z,19.39
2022-08-30T23:58:55.408Z,18.94
